createdAt,value
2019-04-21T00:00:55.645Z,11.45
2019-04-21T00:03:34.837Z,11.95
2019-04-21T00:06:23.698Z,12.20
2019-04-21T00:08:56.560Z,11.65
2019-04-21T00:11:33.002Z,11.10
2019-04-21T00:14:00.970Z,11.80
2019-04-21T00:16:32.135Z,11.22
2019-04-21T00:19:20.851Z,10.40
2019-04-21T00:22:01.293Z,10.82
2019-04-21T00:24:41.473Z,11.00
2019-04-21T00:27:21.404Z,11.22
2019-04-21T00:29:58.512Z,10.95
2019-04-21T00:32:28.107Z,11.53
2019-04-21T00:34:56.273Z,11.35
2019-04-21T00:37:45.360Z,11.20
2019-04-21T00:40:25.646Z,11.57
2019-04-21T00:42:55.632Z,10.88
2019-04-21T00:45:29.153Z,11.00
2019-04-21T00:48:11.104Z,11.18
2019-04-21T00:51:03.607Z,11.57
2019-04-21T00:53:39.461Z,12.05
2019-04-21T00:56:08.939Z,11.48
2019-04-21T00:58:40.975Z,11.43
2019-04-21T01:01:14.974Z,11.05
2019-04-21T01:03:53.750Z,11.75
2019-04-21T01:06:34.024Z,11.83
2019-04-21T01:09:01.255Z,11.12
2019-04-21T01:11:40.226Z,11.63
2019-04-21T01:14:28.044Z,11.28
2019-04-21T01:16:51.983Z,10.58
2019-04-21T01:19:21.130Z,12.03
2019-04-21T01:21:38.261Z,11.57
2019-04-21T01:24:19.711Z,11.73
2019-04-21T01:26:58.093Z,11.38
2019-04-21T01:29:46.011Z,10.58
2019-04-21T01:32:24.476Z,11.73
2019-04-21T01:34:58.226Z,11.75
2019-04-21T01:37:40.816Z,11.45
2019-04-21T01:40:08.470Z,11.18
2019-04-21T01:42:45.846Z,11.85
2019-04-21T01:45:20.077Z,10.70
2019-04-21T01:47:52.144Z,11.70
2019-04-21T01:50:31.574Z,11.83
2019-04-21T01:53:15.567Z,11.03
2019-04-21T01:56:13.870Z,11.43
2019-04-21T01:58:40.226Z,11.95
2019-04-21T02:01:24.618Z,11.35
2019-04-21T02:06:36.239Z,11.50
2019-04-21T02:09:10.001Z,11.65
2019-04-21T02:11:50.475Z,10.88
2019-04-21T02:14:46.080Z,11.50
2019-04-21T02:17:00.550Z,11.93
2019-04-21T02:19:29.939Z,12.33
2019-04-21T02:21:59.307Z,11.65
2019-04-21T02:24:49.357Z,11.90
2019-04-21T02:27:26.139Z,10.95
2019-04-21T02:30:05.287Z,11.95
2019-04-21T02:32:44.311Z,12.03
2019-04-21T02:35:20.805Z,11.55
2019-04-21T02:38:01.261Z,10.80
2019-04-21T02:40:35.781Z,11.63
2019-04-21T02:43:15.188Z,11.48
2019-04-21T02:45:41.015Z,11.88
2019-04-21T02:56:01.059Z,11.40
2019-04-21T02:58:52.693Z,11.33
2019-04-21T03:01:52.269Z,12.05
2019-04-21T03:04:47.540Z,11.68
2019-04-21T03:09:53.246Z,11.48
2019-04-21T03:12:32.088Z,11.65
2019-04-21T03:15:16.059Z,11.15
2019-04-21T03:17:48.750Z,12.30
2019-04-21T03:20:49.066Z,12.05
2019-04-21T03:23:05.375Z,11.68
2019-04-21T03:28:11.159Z,12.33
2019-04-21T03:31:11.497Z,11.95
2019-04-21T03:34:05.767Z,12.30
2019-04-21T03:38:38.491Z,12.10
2019-04-21T03:41:05.189Z,12.70
2019-04-21T03:43:44.217Z,10.93
2019-04-21T03:46:15.865Z,11.33
2019-04-21T03:48:58.355Z,11.15
2019-04-21T03:54:04.983Z,11.35
2019-04-21T04:02:24.669Z,11.20
2019-04-21T04:05:15.225Z,12.13
2019-04-21T04:07:59.454Z,11.70
2019-04-21T04:10:32.054Z,12.58
2019-04-21T04:13:05.038Z,11.43
2019-04-21T04:18:23.435Z,12.37
2019-04-21T04:20:51.271Z,11.93
2019-04-21T04:23:35.655Z,11.78
2019-04-21T04:25:58.942Z,11.80
2019-04-21T04:28:50.152Z,11.68
2019-04-21T04:31:25.841Z,12.20
2019-04-21T04:33:57.805Z,12.00
2019-04-21T04:36:33.967Z,11.30
2019-04-21T04:39:45.594Z,11.93
2019-04-21T04:42:39.241Z,11.30
2019-04-21T04:45:18.061Z,11.20
2019-04-21T04:47:51.315Z,12.58
2019-04-21T04:50:34.008Z,11.73
2019-04-21T04:55:33.230Z,12.25
2019-04-21T04:58:16.004Z,19.70
2019-04-21T05:00:43.080Z,20.85
2019-04-21T05:03:27.675Z,15.83
2019-04-21T05:06:53.360Z,14.30
2019-04-21T05:11:44.321Z,12.90
2019-04-21T05:21:55.360Z,12.93
2019-04-21T05:24:24.050Z,12.10
2019-04-21T05:26:59.471Z,12.50
2019-04-21T05:29:49.553Z,12.90
2019-04-21T05:32:25.250Z,12.13
2019-04-21T05:35:09.521Z,12.15
2019-04-21T05:37:47.747Z,12.75
2019-04-21T05:40:22.100Z,12.63
2019-04-21T05:43:04.429Z,13.83
2019-04-21T05:45:40.797Z,11.73
2019-04-21T05:48:46.986Z,11.22
2019-04-21T05:51:14.689Z,10.08
2019-04-21T05:54:04.916Z,11.22
2019-04-21T05:56:30.586Z,9.50
2019-04-21T05:59:02.107Z,8.30
2019-04-21T06:01:55.422Z,8.20
2019-04-21T06:04:25.508Z,8.18
2019-04-21T06:06:56.777Z,7.55
2019-04-21T06:09:38.147Z,7.22
2019-04-21T06:12:03.464Z,6.55
2019-04-21T06:14:43.992Z,6.60
2019-04-21T06:17:25.266Z,6.15
2019-04-21T06:19:55.893Z,6.03
2019-04-21T06:22:23.942Z,6.10
2019-04-21T06:27:41.589Z,5.37
2019-04-21T06:30:15.252Z,5.75
2019-04-21T06:36:07.754Z,4.75
2019-04-21T06:38:37.979Z,5.00
2019-04-21T06:40:57.539Z,4.87
2019-04-21T06:43:38.621Z,5.03
2019-04-21T06:46:10.965Z,4.60
2019-04-21T06:48:49.332Z,4.70
2019-04-21T06:51:22.729Z,4.40
2019-04-21T06:56:38.086Z,4.65
2019-04-21T06:59:06.093Z,3.87
2019-04-21T07:04:22.314Z,4.15
2019-04-21T07:06:57.782Z,4.00
2019-04-21T07:09:31.450Z,4.22
2019-04-21T07:12:05.824Z,5.25
2019-04-21T07:14:42.327Z,5.72
2019-04-21T07:17:24.579Z,4.92
2019-04-21T07:19:55.795Z,4.42
2019-04-21T07:22:32.383Z,4.50
2019-04-21T07:25:07.362Z,4.70
2019-04-21T07:27:43.121Z,4.30
2019-04-21T07:30:21.157Z,3.85
2019-04-21T07:32:55.279Z,3.60
2019-04-21T07:35:25.561Z,4.10
2019-04-21T07:38:00.827Z,3.67
2019-04-21T07:40:31.519Z,3.60
2019-04-21T07:43:05.592Z,3.62
2019-04-21T07:45:40.540Z,3.47
2019-04-21T07:48:24.676Z,3.35
2019-04-21T07:51:31.634Z,3.10
2019-04-21T07:54:13.406Z,3.42
2019-04-21T07:56:30.794Z,3.40
2019-04-21T07:59:25.625Z,3.12
2019-04-21T08:01:55.013Z,2.98
2019-04-21T08:04:55.857Z,3.00
2019-04-21T08:07:07.282Z,3.47
2019-04-21T08:09:42.677Z,3.27
2019-04-21T08:12:09.833Z,3.20
2019-04-21T08:14:54.631Z,3.58
2019-04-21T08:17:23.721Z,3.02
2019-04-21T08:20:02.538Z,3.02
2019-04-21T08:22:42.951Z,2.65
2019-04-21T08:25:17.511Z,2.67
2019-04-21T08:30:29.180Z,3.25
2019-04-21T08:33:14.350Z,2.62
2019-04-21T08:35:52.912Z,2.67
2019-04-21T08:38:16.823Z,2.37
2019-04-21T08:41:02.567Z,2.20
2019-04-21T08:43:32.049Z,2.90
2019-04-21T08:46:00.445Z,2.95
2019-04-21T08:48:36.418Z,2.90
2019-04-21T08:51:21.084Z,2.75
2019-04-21T08:53:50.580Z,2.62
2019-04-21T08:56:27.694Z,2.55
2019-04-21T08:59:34.308Z,3.20
2019-04-21T09:02:06.349Z,2.72
2019-04-21T09:04:48.006Z,2.60
2019-04-21T09:07:29.349Z,2.72
2019-04-21T09:10:00.330Z,2.90
2019-04-21T09:12:29.170Z,2.62
2019-04-21T09:15:11.520Z,2.55
2019-04-21T09:17:37.781Z,2.55
2019-04-21T09:20:25.136Z,2.27
2019-04-21T09:22:54.208Z,2.70
2019-04-21T09:25:33.527Z,3.22
2019-04-21T09:28:01.287Z,2.83
2019-04-21T09:30:22.034Z,2.75
2019-04-21T09:32:57.954Z,3.10
2019-04-21T09:35:31.590Z,2.80
2019-04-21T09:38:18.885Z,3.05
2019-04-21T09:40:46.088Z,3.35
2019-04-21T09:43:26.999Z,2.98
2019-04-21T09:45:51.939Z,2.98
2019-04-21T09:48:26.645Z,3.58
2019-04-21T09:51:01.935Z,2.98
2019-04-21T09:53:38.875Z,3.33
2019-04-21T09:56:16.054Z,3.20
2019-04-21T09:58:50.354Z,2.83
2019-04-21T10:01:30.807Z,3.47
2019-04-21T10:04:01.720Z,2.72
2019-04-21T10:06:35.011Z,2.75
2019-04-21T10:09:14.177Z,2.65
2019-04-21T10:11:46.552Z,3.10
2019-04-21T10:14:20.385Z,2.80
2019-04-21T10:17:13.249Z,2.58
2019-04-21T10:19:48.439Z,2.90
2019-04-21T10:22:23.245Z,3.22
2019-04-21T10:24:58.417Z,2.95
2019-04-21T10:27:32.431Z,2.77
2019-04-21T10:30:07.883Z,2.67
2019-04-21T10:32:42.782Z,2.75
2019-04-21T10:35:20.692Z,2.77
2019-04-21T10:38:03.467Z,3.40
2019-04-21T10:40:31.715Z,2.80
2019-04-21T10:43:03.900Z,2.80
2019-04-21T10:45:39.010Z,3.27
2019-04-21T10:48:12.921Z,3.17
2019-04-21T10:50:47.297Z,2.80
2019-04-21T10:53:27.392Z,2.90
2019-04-21T10:56:12.811Z,3.00
2019-04-21T10:58:40.364Z,3.08
2019-04-21T11:01:21.041Z,3.10
2019-04-21T11:04:07.618Z,3.00
2019-04-21T11:06:39.993Z,2.95
2019-04-21T11:09:15.850Z,2.77
2019-04-21T11:11:51.717Z,3.12
2019-04-21T11:14:25.439Z,3.10
2019-04-21T11:17:00.509Z,3.47
2019-04-21T11:19:36.942Z,2.60
2019-04-21T11:22:10.698Z,3.00
2019-04-21T11:24:44.998Z,2.90
2019-04-21T11:27:19.143Z,3.00
2019-04-21T11:29:55.683Z,3.20
2019-04-21T11:32:30.654Z,3.42
2019-04-21T11:35:05.305Z,3.33
2019-04-21T11:37:39.922Z,2.98
2019-04-21T11:40:16.719Z,2.98
2019-04-21T11:42:49.799Z,2.90
2019-04-21T11:45:32.770Z,3.20
2019-04-21T11:48:26.204Z,2.83
2019-04-21T11:51:01.236Z,2.87
2019-04-21T11:53:35.027Z,2.60
2019-04-21T11:56:09.055Z,3.25
2019-04-21T11:58:43.918Z,2.77
2019-04-21T12:01:18.012Z,2.70
2019-04-21T12:03:52.091Z,3.27
2019-04-21T12:06:32.272Z,2.92
2019-04-21T12:09:05.278Z,2.77
2019-04-21T12:11:41.138Z,2.83
2019-04-21T12:14:16.178Z,3.10
2019-04-21T12:16:50.891Z,2.72
2019-04-21T12:19:25.014Z,2.80
2019-04-21T12:22:08.799Z,2.65
2019-04-21T12:24:36.806Z,2.62
2019-04-21T12:27:12.009Z,3.10
2019-04-21T12:29:46.129Z,3.00
2019-04-21T12:32:35.987Z,2.90
2019-04-21T12:35:10.214Z,3.10
2019-04-21T12:37:44.818Z,2.70
2019-04-21T12:40:18.786Z,2.87
2019-04-21T12:42:52.709Z,2.95
2019-04-21T12:45:26.498Z,2.72
2019-04-21T12:48:00.139Z,2.90
2019-04-21T12:50:34.097Z,2.70
2019-04-21T12:53:07.991Z,2.92
2019-04-21T12:55:44.856Z,2.55
2019-04-21T12:58:17.630Z,2.67
2019-04-21T13:00:51.691Z,2.60
2019-04-21T13:03:26.825Z,2.70
2019-04-21T13:06:01.374Z,2.52
2019-04-21T13:08:45.676Z,2.50
2019-04-21T13:11:11.535Z,2.75
2019-04-21T13:13:45.980Z,2.50
2019-04-21T13:16:19.637Z,2.40
2019-04-21T13:18:53.543Z,2.77
2019-04-21T13:21:27.845Z,2.58
2019-04-21T13:24:03.011Z,2.60
2019-04-21T13:26:43.960Z,2.72
2019-04-21T13:29:12.593Z,2.55
2019-04-21T13:31:46.239Z,2.70
2019-04-21T13:34:20.088Z,2.50
2019-04-21T13:36:55.492Z,2.70
2019-04-21T13:40:13.116Z,2.90
2019-04-21T13:42:36.614Z,2.50
2019-04-21T13:45:06.395Z,2.47
2019-04-21T13:47:42.875Z,2.47
2019-04-21T13:50:17.339Z,2.45
2019-04-21T13:52:51.973Z,2.45
2019-04-21T13:55:25.772Z,2.70
2019-04-21T13:58:00.391Z,2.50
2019-04-21T14:00:34.164Z,2.25
2019-04-21T14:03:07.918Z,2.72
2019-04-21T14:05:42.421Z,2.80
2019-04-21T14:08:16.302Z,2.85
2019-04-21T14:10:51.399Z,2.25
2019-04-21T14:13:26.732Z,2.42
2019-04-21T14:16:00.572Z,2.55
2019-04-21T14:18:34.764Z,2.40
2019-04-21T14:21:09.199Z,2.55
2019-04-21T14:23:47.167Z,2.35
2019-04-21T14:26:18.412Z,2.37
2019-04-21T14:28:52.618Z,2.40
2019-04-21T14:31:26.463Z,2.50
2019-04-21T14:34:00.225Z,2.60
2019-04-21T14:36:34.964Z,2.33
2019-04-21T14:39:10.615Z,2.60
2019-04-21T14:41:44.415Z,2.35
2019-04-21T14:44:18.635Z,2.40
2019-04-21T14:47:15.409Z,2.17
2019-04-21T14:50:17.669Z,2.60
2019-04-21T14:53:17.947Z,2.27
2019-04-21T14:55:53.179Z,2.52
2019-04-21T14:58:27.416Z,2.42
2019-04-21T15:01:04.176Z,2.22
2019-04-21T15:03:37.911Z,2.10
2019-04-21T15:06:11.868Z,2.30
2019-04-21T15:08:45.492Z,2.40
2019-04-21T15:11:20.010Z,2.60
2019-04-21T15:13:53.918Z,2.40
2019-04-21T15:16:28.789Z,2.42
2019-04-21T15:19:02.794Z,2.50
2019-04-21T15:21:37.598Z,2.20
2019-04-21T15:24:12.192Z,2.30
2019-04-21T15:26:46.438Z,2.12
2019-04-21T15:29:20.416Z,2.25
2019-04-21T15:31:54.610Z,2.45
2019-04-21T15:34:29.785Z,2.10
2019-04-21T15:37:04.102Z,2.65
2019-04-21T15:39:38.422Z,2.30
2019-04-21T15:42:12.646Z,2.30
2019-04-21T15:44:46.593Z,2.35
2019-04-21T15:47:20.301Z,2.47
2019-04-21T15:50:04.668Z,2.30
2019-04-21T15:52:33.869Z,2.35
2019-04-21T15:55:16.813Z,2.27
2019-04-21T15:58:06.841Z,2.35
2019-04-21T16:00:49.647Z,2.10
2019-04-21T16:03:24.735Z,2.33
2019-04-21T16:05:59.367Z,2.33
2019-04-21T16:08:33.376Z,2.55
2019-04-21T16:11:09.273Z,2.37
2019-04-21T16:13:43.645Z,2.50
2019-04-21T16:16:17.724Z,2.47
2019-04-21T16:18:52.187Z,2.20
2019-04-21T16:21:26.273Z,2.30
2019-04-21T16:24:00.521Z,2.45
2019-04-21T16:26:34.974Z,2.25
2019-04-21T16:29:09.113Z,2.50
2019-04-21T16:31:42.882Z,2.40
2019-04-21T16:34:17.774Z,2.10
2019-04-21T16:36:51.836Z,2.40
2019-04-21T16:39:25.536Z,2.50
2019-04-21T16:42:00.394Z,2.70
2019-04-21T16:44:34.735Z,2.65
2019-04-21T16:47:09.654Z,2.42
2019-04-21T16:49:43.663Z,2.40
2019-04-21T16:52:24.023Z,2.30
2019-04-21T16:55:14.874Z,2.35
2019-04-21T16:58:03.081Z,2.30
2019-04-21T17:00:37.747Z,2.30
2019-04-21T17:03:04.329Z,2.50
2019-04-21T17:05:40.359Z,2.12
2019-04-21T17:08:15.730Z,2.52
2019-04-21T17:11:05.608Z,2.40
2019-04-21T17:13:25.005Z,2.37
2019-04-21T17:16:27.352Z,2.08
2019-04-21T17:18:47.476Z,2.47
2019-04-21T17:21:13.204Z,2.37
2019-04-21T17:23:48.245Z,2.12
2019-04-21T17:26:23.414Z,2.50
2019-04-21T17:28:58.496Z,2.30
2019-04-21T17:31:32.358Z,2.10
2019-04-21T17:34:11.638Z,2.47
2019-04-21T17:36:43.140Z,2.60
2019-04-21T17:39:16.844Z,2.02
2019-04-21T17:42:05.229Z,2.58
2019-04-21T17:44:27.620Z,2.37
2019-04-21T17:47:05.642Z,2.40
2019-04-21T17:49:37.446Z,2.10
2019-04-21T17:52:35.265Z,2.30
2019-04-21T17:55:25.067Z,2.00
2019-04-21T17:58:09.375Z,2.22
2019-04-21T18:03:31.578Z,2.30
2019-04-21T18:05:55.907Z,2.12
2019-04-21T18:08:38.296Z,2.42
2019-04-21T18:11:02.149Z,2.22
2019-04-21T18:13:28.695Z,2.50
2019-04-21T18:16:16.161Z,2.40
2019-04-21T18:18:39.086Z,2.40
2019-04-21T18:21:20.804Z,2.30
2019-04-21T18:24:07.275Z,2.77
2019-04-21T18:26:41.728Z,2.17
2019-04-21T18:29:09.569Z,2.65
2019-04-21T18:31:48.650Z,2.33
2019-04-21T18:34:47.790Z,2.45
2019-04-21T18:37:33.206Z,2.55
2019-04-21T18:40:06.884Z,2.37
2019-04-21T18:42:53.214Z,2.17
2019-04-21T18:45:56.825Z,2.20
2019-04-21T18:48:41.156Z,2.50
2019-04-21T18:51:32.711Z,2.52
2019-04-21T18:54:24.175Z,2.40
2019-04-21T18:56:51.458Z,2.67
2019-04-21T18:59:14.167Z,2.45
2019-04-21T19:01:55.015Z,2.60
2019-04-21T19:04:28.778Z,2.62
2019-04-21T19:07:13.140Z,2.62
2019-04-21T19:10:09.947Z,2.35
2019-04-21T19:12:42.380Z,2.45
2019-04-21T19:14:58.077Z,2.40
2019-04-21T19:20:24.138Z,2.45
2019-04-21T19:22:47.260Z,2.60
2019-04-21T19:25:25.419Z,2.55
2019-04-21T19:27:59.191Z,2.40
2019-04-21T19:30:50.690Z,2.52
2019-04-21T19:33:21.953Z,2.52
2019-04-21T19:35:37.241Z,2.85
2019-04-21T19:38:14.438Z,2.42
2019-04-21T19:41:05.309Z,2.50
2019-04-21T19:43:40.933Z,2.67
2019-04-21T19:46:14.374Z,2.50
2019-04-21T19:48:56.583Z,2.55
2019-04-21T19:51:22.198Z,2.42
2019-04-21T19:53:53.740Z,2.60
2019-04-21T19:56:19.671Z,2.58
2019-04-21T19:58:53.288Z,2.50
2019-04-21T20:01:27.655Z,2.85
2019-04-21T20:04:02.834Z,2.90
2019-04-21T20:06:47.607Z,2.72
2019-04-21T20:09:27.766Z,2.50
2019-04-21T20:12:03.652Z,2.98
2019-04-21T20:17:13.966Z,2.58
2019-04-21T20:19:36.233Z,2.77
2019-04-21T20:22:11.377Z,2.47
2019-04-21T20:24:53.934Z,2.65
2019-04-21T20:27:34.771Z,2.65
2019-04-21T20:30:14.169Z,2.90
2019-04-21T20:32:48.862Z,2.75
2019-04-21T20:35:30.811Z,2.75
2019-04-21T20:38:00.390Z,2.90
2019-04-21T20:40:30.896Z,2.70
2019-04-21T20:43:14.055Z,3.02
2019-04-21T20:45:49.446Z,2.95
2019-04-21T20:48:13.877Z,2.50
2019-04-21T20:51:00.598Z,2.87
2019-04-21T20:53:30.320Z,2.70
2019-04-21T20:56:02.371Z,2.98
2019-04-21T20:58:45.142Z,2.85
2019-04-21T21:03:51.735Z,3.35
2019-04-21T21:06:26.131Z,3.02
2019-04-21T21:09:06.181Z,3.00
2019-04-21T21:11:53.605Z,3.10
2019-04-21T21:14:16.365Z,3.22
2019-04-21T21:16:58.147Z,3.33
2019-04-21T21:19:38.092Z,3.37
2019-04-21T21:21:59.190Z,3.37
2019-04-21T21:24:47.398Z,3.37
2019-04-21T21:27:14.099Z,3.05
2019-04-21T21:29:50.319Z,3.47
2019-04-21T21:32:29.164Z,3.40
2019-04-21T21:35:04.837Z,3.58
2019-04-21T21:37:44.068Z,3.40
2019-04-21T21:40:20.067Z,3.45
2019-04-21T21:42:37.505Z,3.45
2019-04-21T21:45:15.954Z,3.45
2019-04-21T21:48:07.316Z,3.65
2019-04-21T21:50:26.131Z,3.10
2019-04-21T21:53:05.805Z,4.05
2019-04-21T21:55:32.785Z,3.55
2019-04-21T21:58:07.692Z,3.60
2019-04-21T22:00:48.623Z,3.85
2019-04-21T22:03:27.419Z,3.92
2019-04-21T22:06:01.949Z,3.55
2019-04-21T22:08:30.421Z,4.03
2019-04-21T22:11:05.438Z,3.75
2019-04-21T22:13:47.610Z,3.90
2019-04-21T22:16:17.683Z,3.90
2019-04-21T22:19:13.258Z,3.92
2019-04-21T22:21:47.600Z,4.05
2019-04-21T22:24:10.890Z,4.17
2019-04-21T22:26:39.026Z,4.05
2019-04-21T22:29:13.847Z,3.77
2019-04-21T22:31:48.380Z,3.95
2019-04-21T22:34:29.634Z,3.83
2019-04-21T22:37:16.541Z,3.67
2019-04-21T22:39:49.609Z,4.05
2019-04-21T22:42:15.797Z,3.95
2019-04-21T22:44:43.948Z,4.00
2019-04-21T22:47:23.774Z,4.12
2019-04-21T22:49:53.090Z,3.95
2019-04-21T22:52:29.629Z,4.20
2019-04-21T22:55:08.211Z,4.25
2019-04-21T22:57:40.787Z,4.25
2019-04-21T23:00:17.403Z,4.42
2019-04-21T23:02:56.092Z,4.42
2019-04-21T23:05:30.198Z,3.92
2019-04-21T23:08:04.863Z,4.47
2019-04-21T23:10:40.691Z,4.00
2019-04-21T23:13:19.839Z,4.60
2019-04-21T23:15:53.648Z,4.55
2019-04-21T23:18:41.223Z,4.15
2019-04-21T23:21:13.764Z,4.58
2019-04-21T23:23:51.658Z,4.20
2019-04-21T23:26:26.684Z,4.87
2019-04-21T23:29:09.020Z,3.98
2019-04-21T23:31:40.682Z,4.67
2019-04-21T23:33:57.939Z,4.25
2019-04-21T23:36:33.654Z,4.58
2019-04-21T23:39:15.682Z,4.50
2019-04-21T23:41:50.620Z,4.70
2019-04-21T23:44:20.378Z,4.22
2019-04-21T23:46:57.571Z,4.55
2019-04-21T23:49:43.867Z,4.95
2019-04-21T23:52:09.979Z,4.67
2019-04-21T23:54:41.060Z,4.83
2019-04-21T23:57:22.272Z,4.85
2019-04-21T23:59:53.951Z,4.95
